createdAt,value
2018-04-22T00:02:06.912Z,88.10
2018-04-22T00:05:16.404Z,87.60
2018-04-22T00:08:26.604Z,76.30
2018-04-22T00:11:35.911Z,84.30
2018-04-22T00:14:45.364Z,86.10
2018-04-22T00:17:54.682Z,86.30
2018-04-22T00:21:03.995Z,87.80
2018-04-22T00:24:13.464Z,87.40
2018-04-22T00:27:23.402Z,77.20
2018-04-22T00:30:32.890Z,89.00
2018-04-22T00:33:42.561Z,80.60
2018-04-22T00:36:52.018Z,89.70
2018-04-22T00:40:02.111Z,79.60
2018-04-22T00:43:11.460Z,90.00
2018-04-22T00:46:21.233Z,80.00
2018-04-22T00:49:31.621Z,89.90
2018-04-22T00:52:41.699Z,78.90
2018-04-22T00:55:51.160Z,89.50
2018-04-22T00:59:01.400Z,80.10
2018-04-22T01:02:10.714Z,89.60
2018-04-22T01:05:19.999Z,89.30
2018-04-22T01:08:29.392Z,90.60
2018-04-22T01:11:38.889Z,89.80
2018-04-22T01:14:49.122Z,81.30
2018-04-22T01:17:59.277Z,82.40
2018-04-22T01:21:08.676Z,91.30
2018-04-22T01:24:18.778Z,82.00
2018-04-22T01:27:28.464Z,80.80
2018-04-22T01:30:37.937Z,90.40
2018-04-22T01:33:47.650Z,89.70
2018-04-22T01:36:56.920Z,90.00
2018-04-22T01:40:06.721Z,79.70
2018-04-22T01:43:16.892Z,81.80
2018-04-22T01:46:26.608Z,85.50
2018-04-22T01:49:36.852Z,85.70
2018-04-22T01:52:46.400Z,90.50
2018-04-22T01:55:55.805Z,92.50
2018-04-22T01:59:05.669Z,85.10
2018-04-22T02:02:15.861Z,87.70
2018-04-22T02:05:25.504Z,85.90
2018-04-22T02:08:34.869Z,92.90
2018-04-22T02:11:44.287Z,92.60
2018-04-22T02:14:53.797Z,90.40
2018-04-22T02:18:03.559Z,85.40
2018-04-22T02:21:12.912Z,91.90
2018-04-22T02:24:22.919Z,85.20
2018-04-22T02:27:32.379Z,92.60
2018-04-22T02:30:42.155Z,85.60
2018-04-22T02:33:51.457Z,92.90
2018-04-22T02:37:01.540Z,85.40
2018-04-22T02:40:10.917Z,93.10
2018-04-22T02:43:22.045Z,86.10
2018-04-22T02:46:31.767Z,85.90
2018-04-22T02:49:41.103Z,92.80
2018-04-22T02:52:51.915Z,85.10
2018-04-22T02:56:02.005Z,84.80
2018-04-22T02:59:11.781Z,87.40
2018-04-22T03:02:21.860Z,85.00
2018-04-22T03:05:32.116Z,85.20
2018-04-22T03:08:42.180Z,85.50
2018-04-22T03:11:51.492Z,92.90
2018-04-22T03:15:00.761Z,92.80
2018-04-22T03:18:10.229Z,92.40
2018-04-22T03:21:19.533Z,92.70
2018-04-22T03:24:28.861Z,93.10
2018-04-22T03:27:38.321Z,93.40
2018-04-22T03:30:48.102Z,93.50
2018-04-22T03:33:58.250Z,87.90
2018-04-22T03:37:08.435Z,87.80
2018-04-22T03:40:18.567Z,89.20
2018-04-22T03:43:28.020Z,94.00
2018-04-22T03:46:38.232Z,88.20
2018-04-22T03:49:48.444Z,88.10
2018-04-22T03:52:57.825Z,94.30
2018-04-22T03:56:07.644Z,88.80
2018-04-22T03:59:17.773Z,87.50
2018-04-22T04:02:27.542Z,87.10
2018-04-22T04:05:37.636Z,87.00
2018-04-22T04:08:47.055Z,93.80
2018-04-22T04:11:56.475Z,94.30
2018-04-22T04:15:06.328Z,89.30
2018-04-22T04:22:35.177Z,90.20
2018-04-22T04:26:02.158Z,95.30
2018-04-22T04:29:11.342Z,94.50
2018-04-22T04:32:20.907Z,94.20
2018-04-22T04:35:31.099Z,89.10
2018-04-22T04:38:41.643Z,94.20
2018-04-22T04:41:51.341Z,93.90
2018-04-22T04:45:01.394Z,86.80
2018-04-22T04:48:10.935Z,91.30
2018-04-22T04:51:21.579Z,82.80
2018-04-22T04:54:31.828Z,82.60
2018-04-22T04:57:41.688Z,81.90
2018-04-22T05:00:51.397Z,82.20
2018-04-22T05:04:00.664Z,90.70
2018-04-22T05:07:10.506Z,82.20
2018-04-22T05:10:19.879Z,88.90
2018-04-22T05:13:30.138Z,78.80
2018-04-22T05:16:41.057Z,78.40
2018-04-22T05:19:51.256Z,78.80
2018-04-22T05:23:00.710Z,87.70
2018-04-22T05:26:10.798Z,78.00
2018-04-22T05:29:21.121Z,77.70
2018-04-22T05:32:31.156Z,76.90
2018-04-22T05:35:40.848Z,85.30
2018-04-22T05:38:50.765Z,78.60
2018-04-22T05:42:00.865Z,74.70
2018-04-22T05:45:10.176Z,83.70
2018-04-22T05:48:19.578Z,83.90
2018-04-22T05:51:29.815Z,73.00
2018-04-22T05:54:39.127Z,82.80
2018-04-22T05:57:49.261Z,74.10
2018-04-22T06:00:59.332Z,74.20
2018-04-22T06:04:09.075Z,74.00
2018-04-22T06:07:18.423Z,82.90
2018-04-22T06:10:28.636Z,74.20
2018-04-22T06:13:37.888Z,82.30
2018-04-22T06:16:48.064Z,74.10
2018-04-22T06:19:57.495Z,82.20
2018-04-22T06:23:06.888Z,81.90
2018-04-22T06:26:17.151Z,72.10
2018-04-22T06:29:26.567Z,80.10
2018-04-22T06:32:36.386Z,72.80
2018-04-22T06:35:45.747Z,78.40
2018-04-22T06:38:55.432Z,69.00
2018-04-22T06:42:04.778Z,75.90
2018-04-22T06:45:14.891Z,66.00
2018-04-22T06:48:25.173Z,65.40
2018-04-22T06:51:35.309Z,64.60
2018-04-22T06:54:45.464Z,63.90
2018-04-22T06:57:55.553Z,63.60
2018-04-22T07:01:05.760Z,64.10
2018-04-22T07:04:15.067Z,71.20
2018-04-22T07:07:24.466Z,72.50
2018-04-22T07:10:33.998Z,72.80
2018-04-22T07:13:43.631Z,74.30
2018-04-22T07:16:52.948Z,72.90
2018-04-22T07:20:03.172Z,65.00
2018-04-22T07:23:12.543Z,72.00
2018-04-22T07:26:22.648Z,64.60
2018-04-22T07:29:32.032Z,68.00
2018-04-22T07:32:41.956Z,62.60
2018-04-22T07:35:51.331Z,69.30
2018-04-22T07:39:01.424Z,64.80
2018-04-22T07:42:10.787Z,67.60
2018-04-22T07:45:20.465Z,60.90
2018-04-22T07:48:29.784Z,69.20
2018-04-22T07:51:39.943Z,62.70
2018-04-22T07:54:49.441Z,67.80
2018-04-22T07:57:59.540Z,61.00
2018-04-22T08:01:10.429Z,61.00
2018-04-22T08:04:19.923Z,66.70
2018-04-22T08:07:29.980Z,60.40
2018-04-22T08:10:40.097Z,62.10
2018-04-22T08:13:49.516Z,67.60
2018-04-22T08:16:59.031Z,68.50
2018-04-22T08:20:08.347Z,66.80
2018-04-22T08:23:18.217Z,63.50
2018-04-22T08:26:27.601Z,65.50
2018-04-22T08:29:37.743Z,59.30
2018-04-22T08:32:47.450Z,59.20
2018-04-22T08:35:58.049Z,60.90
2018-04-22T08:39:08.249Z,58.10
2018-04-22T08:42:18.437Z,58.20
2018-04-22T08:45:27.921Z,64.80
2018-04-22T08:48:37.428Z,63.20
2018-04-22T08:51:47.689Z,57.40
2018-04-22T08:54:57.867Z,58.00
2018-04-22T08:58:08.017Z,58.40
2018-04-22T09:01:17.326Z,61.70
2018-04-22T09:04:27.048Z,57.50
2018-04-22T09:07:36.327Z,59.50
2018-04-22T09:10:45.873Z,56.50
2018-04-22T09:13:55.780Z,51.80
2018-04-22T09:17:05.520Z,52.00
2018-04-22T09:20:15.383Z,52.30
2018-04-22T09:23:25.499Z,51.90
2018-04-22T09:26:34.703Z,55.00
2018-04-22T09:29:44.112Z,53.10
2018-04-22T09:32:53.509Z,56.40
2018-04-22T09:36:03.007Z,53.20
2018-04-22T09:39:12.601Z,53.70
2018-04-22T09:42:21.769Z,51.30
2018-04-22T09:45:32.120Z,48.30
2018-04-22T09:48:42.276Z,46.50
2018-04-22T09:51:52.485Z,48.40
2018-04-22T09:55:01.824Z,50.30
2018-04-22T09:58:11.493Z,46.40
2018-04-22T10:01:20.840Z,50.10
2018-04-22T10:08:06.927Z,48.10
2018-04-22T10:11:16.397Z,49.20
2018-04-22T10:14:25.785Z,48.80
2018-04-22T10:17:35.406Z,48.20
2018-04-22T10:20:45.296Z,46.60
2018-04-22T10:23:54.649Z,47.70
2018-04-22T10:27:04.179Z,46.70
2018-04-22T10:30:13.607Z,46.00
2018-04-22T10:33:23.094Z,48.90
2018-04-22T10:36:33.296Z,44.90
2018-04-22T10:39:43.196Z,45.50
2018-04-22T10:42:52.622Z,43.30
2018-04-22T10:46:02.190Z,44.00
2018-04-22T10:49:11.592Z,45.70
2018-04-22T10:52:21.479Z,42.80
2018-04-22T10:55:30.911Z,43.50
2018-04-22T10:58:40.358Z,41.10
2018-04-22T11:01:49.655Z,41.40
2018-04-22T11:04:59.981Z,42.70
2018-04-22T11:08:09.443Z,42.00
2018-04-22T11:11:19.615Z,40.70
2018-04-22T11:14:28.963Z,44.90
2018-04-22T11:17:38.464Z,45.10
2018-04-22T11:20:48.561Z,39.80
2018-04-22T11:23:57.917Z,44.30
2018-04-22T11:27:07.259Z,43.00
2018-04-22T11:30:16.612Z,44.10
2018-04-22T11:33:26.051Z,46.10
2018-04-22T11:36:35.541Z,44.70
2018-04-22T11:39:44.769Z,46.90
2018-04-22T11:42:54.206Z,45.20
2018-04-22T11:46:04.442Z,43.50
2018-04-22T11:49:13.768Z,47.00
2018-04-22T11:52:23.128Z,45.90
2018-04-22T11:55:32.579Z,43.60
2018-04-22T11:58:42.839Z,43.10
2018-04-22T12:01:52.334Z,42.30
2018-04-22T12:05:01.866Z,43.30
2018-04-22T12:08:11.293Z,41.10
2018-04-22T12:11:20.731Z,38.80
2018-04-22T12:14:30.884Z,37.60
2018-04-22T12:17:40.240Z,41.20
2018-04-22T12:20:49.679Z,39.90
2018-04-22T12:23:59.186Z,39.90
2018-04-22T12:27:09.172Z,36.80
2018-04-22T12:30:19.328Z,36.60
2018-04-22T12:33:28.791Z,38.00
2018-04-22T12:36:38.989Z,34.80
2018-04-22T12:39:49.047Z,33.50
2018-04-22T12:42:58.376Z,33.90
2018-04-22T12:46:07.869Z,34.50
2018-04-22T12:49:17.655Z,32.20
2018-04-22T12:52:27.130Z,32.00
2018-04-22T12:55:37.425Z,31.40
2018-04-22T12:58:46.724Z,32.90
2018-04-22T13:01:56.105Z,31.00
2018-04-22T13:05:05.385Z,31.70
2018-04-22T13:08:14.743Z,30.90
2018-04-22T13:11:24.051Z,30.20
2018-04-22T13:14:33.499Z,30.20
2018-04-22T13:17:43.415Z,29.10
2018-04-22T13:20:52.951Z,29.60
2018-04-22T13:24:02.433Z,29.10
2018-04-22T13:27:11.920Z,29.80
2018-04-22T13:30:21.424Z,28.90
2018-04-22T13:33:30.802Z,28.90
2018-04-22T13:36:40.281Z,29.40
2018-04-22T13:39:50.553Z,28.20
2018-04-22T13:42:59.854Z,28.20
2018-04-22T13:46:09.304Z,28.80
2018-04-22T13:49:18.739Z,31.20
2018-04-22T13:52:28.221Z,35.70
2018-04-22T13:55:37.745Z,36.20
2018-04-22T13:58:47.171Z,36.70
2018-04-22T14:01:56.595Z,37.60
2018-04-22T14:05:05.991Z,38.10
2018-04-22T14:08:15.481Z,38.40
2018-04-22T14:11:24.936Z,38.60
2018-04-22T14:14:34.599Z,43.30
2018-04-22T14:17:48.116Z,45.40
2018-04-22T14:20:57.328Z,52.40
2018-04-22T14:24:06.652Z,56.20
2018-04-22T14:27:16.910Z,57.20
2018-04-22T14:30:27.005Z,53.70
2018-04-22T14:33:40.592Z,50.00
2018-04-22T14:36:50.698Z,50.10
2018-04-22T14:39:59.934Z,47.90
2018-04-22T14:43:09.265Z,47.60
2018-04-22T14:46:18.901Z,45.80
2018-04-22T14:49:28.334Z,45.10
2018-04-22T14:52:37.658Z,39.50
2018-04-22T14:55:47.069Z,36.20
2018-04-22T14:58:56.647Z,36.60
2018-04-22T15:02:05.981Z,34.10
2018-04-22T15:05:15.534Z,35.00
2018-04-22T15:08:29.760Z,32.80
2018-04-22T15:11:39.295Z,31.70
2018-04-22T15:14:49.444Z,33.40
2018-04-22T15:17:59.020Z,33.40
2018-04-22T15:21:08.496Z,33.20
2018-04-22T15:24:17.869Z,33.90
2018-04-22T15:27:28.288Z,40.90
2018-04-22T15:30:37.687Z,43.40
2018-04-22T15:33:47.623Z,38.40
2018-04-22T15:36:56.932Z,44.10
2018-04-22T15:40:06.250Z,43.70
2018-04-22T15:43:15.716Z,43.10
2018-04-22T15:46:25.044Z,42.90
2018-04-22T15:49:34.471Z,44.40
2018-04-22T15:52:45.327Z,43.40
2018-04-22T15:55:54.847Z,43.90
2018-04-22T15:59:04.112Z,44.10
2018-04-22T16:02:13.462Z,42.90
2018-04-22T16:05:22.897Z,43.30
2018-04-22T16:08:32.181Z,44.70
2018-04-22T16:11:42.271Z,44.40
2018-04-22T16:14:51.604Z,44.20
2018-04-22T16:18:01.020Z,44.70
2018-04-22T16:21:10.427Z,45.40
2018-04-22T16:24:20.560Z,45.20
2018-04-22T16:27:29.871Z,47.50
2018-04-22T16:30:39.470Z,47.30
2018-04-22T16:33:53.368Z,48.10
2018-04-22T16:37:02.745Z,50.10
2018-04-22T16:40:12.972Z,49.60
2018-04-22T16:43:22.879Z,50.50
2018-04-22T16:46:32.416Z,53.50
2018-04-22T16:49:42.211Z,51.20
2018-04-22T16:52:52.782Z,52.80
2018-04-22T16:56:03.003Z,53.10
2018-04-22T16:59:12.560Z,56.70
2018-04-22T17:02:21.997Z,56.30
2018-04-22T17:05:31.433Z,57.70
2018-04-22T17:08:41.604Z,53.90
2018-04-22T17:11:50.915Z,59.10
2018-04-22T17:15:00.498Z,59.70
2018-04-22T17:18:10.531Z,56.60
2018-04-22T17:21:19.969Z,60.80
2018-04-22T17:24:29.408Z,62.00
2018-04-22T17:27:38.676Z,61.80
2018-04-22T17:30:48.109Z,61.50
2018-04-22T17:33:57.918Z,58.40
2018-04-22T17:37:07.250Z,64.50
2018-04-22T17:40:16.679Z,63.00
2018-04-22T17:43:26.315Z,61.70
2018-04-22T17:46:35.626Z,65.10
2018-04-22T17:49:46.194Z,61.70
2018-04-22T17:52:56.237Z,62.00
2018-04-22T17:56:06.371Z,62.40
2018-04-22T17:59:16.500Z,62.70
2018-04-22T18:02:26.188Z,65.10
2018-04-22T18:05:35.988Z,64.00
2018-04-22T18:08:45.292Z,71.20
2018-04-22T18:11:55.056Z,65.60
2018-04-22T18:15:04.888Z,65.70
2018-04-22T18:18:14.234Z,72.40
2018-04-22T18:21:23.700Z,72.60
2018-04-22T18:24:33.110Z,69.90
2018-04-22T18:27:42.963Z,68.70
2018-04-22T18:30:52.386Z,76.20
2018-04-22T18:34:01.634Z,74.00
2018-04-22T18:37:11.057Z,77.20
2018-04-22T18:40:20.556Z,75.30
2018-04-22T18:43:30.380Z,68.40
2018-04-22T18:46:40.436Z,68.20
2018-04-22T18:49:50.347Z,69.40
2018-04-22T18:53:00.432Z,76.30
2018-04-22T18:56:10.084Z,90.40
2018-04-22T18:59:20.205Z,92.30
2018-04-22T19:02:30.072Z,94.10
2018-04-22T19:05:39.512Z,97.70
2018-04-22T19:08:49.582Z,95.10
2018-04-22T19:11:58.939Z,99.90
2018-04-22T19:15:08.425Z,99.90
2018-04-22T19:18:17.867Z,99.90
2018-04-22T19:21:27.984Z,97.30
2018-04-22T19:24:37.300Z,99.90
2018-04-22T19:27:46.663Z,99.90
2018-04-22T19:30:56.521Z,99.90
2018-04-22T19:34:05.888Z,99.90
2018-04-22T19:37:16.560Z,99.90
2018-04-22T19:40:29.977Z,99.90
2018-04-22T19:43:39.344Z,99.90
2018-04-22T19:46:48.875Z,99.90
2018-04-22T19:49:59.113Z,99.90
2018-04-22T19:53:09.166Z,99.90
2018-04-22T19:56:18.455Z,99.90
2018-04-22T19:59:27.870Z,99.90
2018-04-22T20:02:37.277Z,99.90
2018-04-22T20:05:47.085Z,99.90
2018-04-22T20:08:57.313Z,99.90
2018-04-22T20:12:07.819Z,99.90
2018-04-22T20:15:17.738Z,99.90
2018-04-22T20:18:27.976Z,99.90
2018-04-22T20:21:37.780Z,99.90
2018-04-22T20:24:47.843Z,99.90
2018-04-22T20:27:57.224Z,99.90
2018-04-22T20:31:07.337Z,99.90
2018-04-22T20:34:17.108Z,99.90
2018-04-22T20:37:27.005Z,99.90
2018-04-22T20:40:36.337Z,99.90
2018-04-22T20:43:46.448Z,99.90
2018-04-22T20:46:56.352Z,99.90
2018-04-22T20:50:05.687Z,99.90
2018-04-22T20:53:15.582Z,99.90
2018-04-22T20:56:24.995Z,99.90
2018-04-22T20:59:35.651Z,99.90
2018-04-22T21:02:45.767Z,99.90
2018-04-22T21:05:55.141Z,99.90
2018-04-22T21:09:04.612Z,99.90
2018-04-22T21:12:14.768Z,99.90
2018-04-22T21:15:24.111Z,99.90
2018-04-22T21:18:33.484Z,99.90
2018-04-22T21:21:44.075Z,99.90
2018-04-22T21:24:53.339Z,99.90
2018-04-22T21:28:03.076Z,99.90
2018-04-22T21:31:12.412Z,99.90
2018-04-22T21:34:22.337Z,99.90
2018-04-22T21:37:31.724Z,99.90
2018-04-22T21:40:41.172Z,99.90
2018-04-22T21:43:51.048Z,99.90
2018-04-22T21:47:00.396Z,99.90
2018-04-22T21:50:10.183Z,99.90
2018-04-22T21:53:20.264Z,99.90
2018-04-22T21:56:29.618Z,99.90
2018-04-22T21:59:39.349Z,99.90
2018-04-22T22:02:48.771Z,99.90
2018-04-22T22:05:58.171Z,99.90
2018-04-22T22:09:07.476Z,99.90
2018-04-22T22:12:17.707Z,99.90
2018-04-22T22:15:27.083Z,99.90
2018-04-22T22:18:37.326Z,99.90
2018-04-22T22:21:46.635Z,99.90
2018-04-22T22:24:56.841Z,99.90
2018-04-22T22:28:06.159Z,99.90
2018-04-22T22:31:16.050Z,99.90
2018-04-22T22:34:25.917Z,99.90
2018-04-22T22:37:35.347Z,99.90
2018-04-22T22:40:44.797Z,99.90
2018-04-22T22:43:55.449Z,99.90
2018-04-22T22:47:05.676Z,99.90
2018-04-22T22:50:15.049Z,99.90
2018-04-22T22:53:24.475Z,99.90
2018-04-22T22:56:34.228Z,99.90
2018-04-22T22:59:44.519Z,99.90
2018-04-22T23:02:53.965Z,99.90
2018-04-22T23:06:04.247Z,99.90
2018-04-22T23:09:13.876Z,99.90
2018-04-22T23:12:24.127Z,99.90
2018-04-22T23:15:37.904Z,99.90
2018-04-22T23:18:47.806Z,99.90
2018-04-22T23:21:57.167Z,99.90
2018-04-22T23:25:06.553Z,99.90
2018-04-22T23:28:15.890Z,99.90
2018-04-22T23:31:25.326Z,99.90
2018-04-22T23:34:34.895Z,99.90
2018-04-22T23:37:44.415Z,99.90
2018-04-22T23:40:53.777Z,99.90
2018-04-22T23:44:04.428Z,99.90
2018-04-22T23:47:14.117Z,99.90
2018-04-22T23:50:24.716Z,99.90
2018-04-22T23:53:34.196Z,99.90
2018-04-22T23:56:43.672Z,99.90
2018-04-22T23:59:53.483Z,99.90
